Makinen, Minnesota
Current Conditions -  °F | °C
As of 1:31 AM on Saturday 29 Nov 2014 (Local Time) from KEVM Reporting Station
Broken Clouds Broken Clouds  
Wind Chill:   Ceiling: 1200
Heat Index: 18°   Visibility: 10mi
Dew Point: 14°   Wind: 6mph
Humidity: 86%   Direction: 160°SSE
Pressure: 29.6"   Gusts: NA
Location:  47.36°N, 92.37°W
Report Text: KEVM 290731Z AUTO 16005KT 10SM BKN012 M08/M10 A2960 RMK AO2
Loading
Personal Weather Stations






























Interactive Weather Map New forecast layout! Learn more

10-Day Weather Forecast

Advertisements
Track Severe Weather on mobile